createdAt,value
2019-06-01T00:00:46.256Z,17.75
2019-06-01T00:03:17.641Z,18.73
2019-06-01T00:05:47.113Z,17.25
2019-06-01T00:08:16.391Z,18.70
2019-06-01T00:10:45.785Z,19.73
2019-06-01T00:13:15.156Z,19.57
2019-06-01T00:15:44.508Z,21.80
2019-06-01T00:18:13.883Z,25.25
2019-06-01T00:20:44.298Z,20.55
2019-06-01T00:23:13.670Z,21.30
2019-06-01T00:25:43.101Z,17.92
2019-06-01T00:28:12.460Z,21.42
2019-06-01T00:30:41.909Z,19.05
2019-06-01T00:33:11.205Z,23.77
2019-06-01T00:35:41.336Z,21.12
2019-06-01T00:38:10.747Z,20.10
2019-06-01T00:40:40.212Z,21.82
2019-06-01T00:43:09.561Z,21.62
2019-06-01T00:45:38.875Z,29.77
2019-06-01T00:48:10.130Z,23.70
2019-06-01T00:50:39.679Z,24.67
2019-06-01T00:53:09.137Z,21.30
2019-06-01T00:55:38.519Z,22.90
2019-06-01T00:58:07.807Z,24.12
2019-06-01T01:00:43.629Z,21.07
2019-06-01T01:03:08.160Z,23.80
2019-06-01T01:05:37.477Z,21.57
2019-06-01T01:08:06.975Z,22.55
2019-06-01T01:10:36.342Z,24.15
2019-06-01T01:13:09.982Z,26.48
2019-06-01T01:15:39.378Z,26.48
2019-06-01T01:18:09.339Z,24.87
2019-06-01T01:20:38.882Z,23.20
2019-06-01T01:23:08.542Z,25.37
2019-06-01T01:25:37.964Z,21.52
2019-06-01T01:28:07.281Z,22.93
2019-06-01T01:30:36.655Z,24.05
2019-06-01T01:33:06.039Z,23.02
2019-06-01T01:35:35.361Z,24.87
2019-06-01T01:38:05.014Z,20.70
2019-06-01T01:40:34.338Z,23.32
2019-06-01T01:43:03.654Z,26.40
2019-06-01T01:45:32.995Z,25.88
2019-06-01T01:48:02.331Z,26.48
2019-06-01T01:50:32.614Z,27.32
2019-06-01T01:53:03.333Z,23.27
2019-06-01T01:55:32.869Z,25.40
2019-06-01T01:58:02.177Z,27.45
2019-06-01T02:00:42.729Z,26.77
2019-06-01T02:03:12.164Z,34.50
2019-06-01T02:05:41.765Z,29.45
2019-06-01T02:08:11.217Z,26.48
2019-06-01T02:10:40.615Z,27.82
2019-06-01T02:13:09.954Z,27.70
2019-06-01T02:15:40.500Z,28.60
2019-06-01T02:18:09.789Z,31.57
2019-06-01T02:20:39.256Z,31.68
2019-06-01T02:23:08.617Z,31.33
2019-06-01T02:25:37.989Z,29.57
2019-06-01T02:28:07.473Z,28.30
2019-06-01T02:30:36.868Z,29.07
2019-06-01T02:33:06.137Z,30.15
2019-06-01T02:35:35.514Z,28.00
2019-06-01T02:38:05.716Z,28.00
2019-06-01T02:40:35.692Z,32.40
2019-06-01T02:43:06.781Z,29.92
2019-06-01T02:45:36.547Z,30.15
2019-06-01T02:48:06.573Z,34.15
2019-06-01T02:50:36.147Z,32.03
2019-06-01T02:53:07.180Z,31.93
2019-06-01T02:55:36.455Z,32.80
2019-06-01T02:58:06.672Z,31.82
2019-06-01T03:00:48.522Z,32.78
2019-06-01T03:03:18.473Z,32.23
2019-06-01T03:05:48.902Z,32.25
2019-06-01T03:08:19.582Z,34.88
2019-06-01T03:10:50.383Z,30.82
2019-06-01T03:13:20.365Z,32.65
2019-06-01T03:15:52.155Z,30.75
2019-06-01T03:18:22.508Z,31.97
2019-06-01T03:20:52.727Z,33.95
2019-06-01T03:23:24.308Z,33.13
2019-06-01T03:25:54.365Z,33.75
2019-06-01T03:28:25.374Z,36.95
2019-06-01T03:30:54.755Z,33.73
2019-06-01T03:33:24.037Z,34.43
2019-06-01T03:35:55.089Z,35.33
2019-06-01T03:38:24.709Z,34.90
2019-06-01T03:40:54.090Z,36.38
2019-06-01T03:43:23.722Z,38.58
2019-06-01T03:45:53.014Z,34.85
2019-06-01T03:48:22.333Z,34.30
2019-06-01T03:50:51.941Z,38.92
2019-06-01T03:53:21.243Z,35.13
2019-06-01T03:55:50.551Z,35.23
2019-06-01T03:58:21.479Z,35.17
2019-06-01T04:00:50.788Z,37.33
2019-06-01T04:03:20.079Z,41.88
2019-06-01T04:05:49.457Z,40.58
2019-06-01T04:08:18.834Z,39.85
2019-06-01T04:10:48.155Z,40.33
2019-06-01T04:13:17.434Z,38.78
2019-06-01T04:15:46.734Z,36.63
2019-06-01T04:18:16.164Z,40.45
2019-06-01T04:20:45.524Z,41.23
2019-06-01T04:23:14.877Z,38.05
2019-06-01T04:25:44.285Z,36.63
2019-06-01T04:28:13.660Z,36.70
2019-06-01T04:30:42.987Z,36.20
2019-06-01T04:33:13.251Z,35.80
2019-06-01T04:35:43.759Z,39.98
2019-06-01T04:38:13.477Z,33.42
2019-06-01T04:40:42.847Z,32.67
2019-06-01T04:43:12.276Z,32.30
2019-06-01T04:45:41.833Z,31.37
2019-06-01T04:48:11.142Z,33.23
2019-06-01T04:50:40.463Z,32.65
2019-06-01T04:53:11.808Z,29.50
2019-06-01T04:55:40.807Z,28.60
2019-06-01T04:58:11.135Z,29.07
2019-06-01T05:00:40.641Z,28.50
2019-06-01T05:03:10.829Z,27.95
2019-06-01T05:05:41.226Z,26.85
2019-06-01T05:08:12.569Z,23.95
2019-06-01T05:10:41.734Z,22.82
2019-06-01T05:13:11.520Z,25.30
2019-06-01T05:15:40.830Z,25.02
2019-06-01T05:18:10.132Z,22.70
2019-06-01T05:20:39.514Z,20.20
2019-06-01T05:23:10.571Z,17.37
2019-06-01T05:25:40.249Z,15.65
2019-06-01T05:28:09.561Z,18.48
2019-06-01T05:30:38.847Z,18.10
2019-06-01T05:33:22.439Z,15.65
2019-06-01T05:35:39.159Z,17.15
2019-06-01T05:38:08.471Z,17.90
2019-06-01T05:40:38.007Z,16.42
2019-06-01T05:43:10.805Z,18.30
2019-06-01T05:45:38.442Z,18.62
2019-06-01T05:48:07.798Z,17.87
2019-06-01T05:50:38.139Z,17.25
2019-06-01T05:53:07.525Z,18.05
2019-06-01T05:55:36.825Z,20.50
2019-06-01T05:58:06.125Z,21.27
2019-06-01T06:00:40.768Z,22.10
2019-06-01T06:03:12.888Z,22.50
2019-06-01T06:05:41.228Z,20.77
2019-06-01T06:08:12.538Z,23.67
2019-06-01T06:10:41.536Z,23.55
2019-06-01T06:13:11.201Z,20.52
2019-06-01T06:15:40.602Z,23.38
2019-06-01T06:18:10.173Z,20.72
2019-06-01T06:20:39.481Z,24.70
2019-06-01T06:23:08.815Z,23.05
2019-06-01T06:25:40.959Z,23.20
2019-06-01T06:28:09.205Z,28.73
2019-06-01T06:30:39.755Z,24.07
2019-06-01T06:33:09.044Z,22.80
2019-06-01T06:35:38.431Z,23.22
2019-06-01T06:38:07.860Z,23.12
2019-06-01T06:40:37.191Z,23.65
2019-06-01T06:43:18.680Z,21.80
2019-06-01T06:45:37.817Z,19.70
2019-06-01T06:48:07.120Z,19.20
2019-06-01T06:50:36.494Z,21.15
2019-06-01T06:53:06.125Z,22.90
2019-06-01T06:55:36.044Z,18.15
2019-06-01T06:58:05.491Z,18.90
2019-06-01T07:00:34.809Z,16.20
2019-06-01T07:03:04.123Z,13.83
2019-06-01T07:05:33.429Z,14.70
2019-06-01T07:08:02.804Z,14.93
2019-06-01T07:10:32.112Z,14.05
2019-06-01T07:13:01.410Z,14.65
2019-06-01T07:15:31.765Z,15.43
2019-06-01T07:18:01.136Z,16.70
2019-06-01T07:20:30.399Z,18.40
2019-06-01T07:22:59.720Z,14.35
2019-06-01T07:25:29.085Z,16.12
2019-06-01T07:27:58.388Z,15.50
2019-06-01T07:30:28.464Z,16.48
2019-06-01T07:32:57.813Z,16.97
2019-06-01T07:35:28.371Z,18.27
2019-06-01T07:37:57.869Z,19.00
2019-06-01T07:40:27.195Z,16.70
2019-06-01T07:42:56.522Z,17.57
2019-06-01T07:45:26.926Z,17.35
2019-06-01T07:47:56.365Z,18.50
2019-06-01T07:50:25.965Z,15.85
2019-06-01T07:52:55.358Z,16.32
2019-06-01T07:55:25.489Z,16.80
2019-06-01T07:57:54.987Z,15.40
2019-06-01T08:00:25.611Z,17.45
2019-06-01T08:02:55.494Z,14.35
2019-06-01T08:05:26.435Z,13.48
2019-06-01T08:07:55.793Z,15.60
2019-06-01T08:10:26.521Z,16.15
2019-06-01T08:12:57.139Z,14.87
2019-06-01T08:15:28.045Z,13.53
2019-06-01T08:17:58.686Z,12.70
2019-06-01T08:20:28.625Z,15.20
2019-06-01T08:22:59.300Z,15.98
2019-06-01T08:25:28.724Z,13.72
2019-06-01T08:27:58.348Z,13.70
2019-06-01T08:30:28.623Z,12.90
2019-06-01T08:32:58.045Z,14.13
2019-06-01T08:35:27.385Z,10.45
2019-06-01T08:37:56.670Z,9.18
2019-06-01T08:40:27.303Z,10.08
2019-06-01T08:42:56.775Z,8.65
2019-06-01T08:45:26.068Z,12.30
2019-06-01T08:47:55.597Z,8.38
2019-06-01T08:50:25.707Z,10.20
2019-06-01T08:52:56.043Z,9.75
2019-06-01T08:55:26.087Z,9.75
2019-06-01T08:57:55.506Z,12.68
2019-06-01T09:00:26.225Z,12.70
2019-06-01T09:02:55.740Z,8.98
2019-06-01T09:05:26.825Z,8.40
2019-06-01T09:07:56.078Z,10.43
2019-06-01T09:10:25.394Z,12.28
2019-06-01T09:12:54.694Z,10.13
2019-06-01T09:15:25.477Z,10.35
2019-06-01T09:17:54.930Z,9.53
2019-06-01T09:20:25.412Z,11.53
2019-06-01T09:22:56.484Z,9.30
2019-06-01T09:25:25.797Z,10.50
2019-06-01T09:27:55.276Z,12.00
2019-06-01T09:30:25.889Z,12.07
2019-06-01T09:32:55.251Z,14.93
2019-06-01T09:35:46.480Z,12.60
2019-06-01T09:40:27.318Z,8.15
2019-06-01T09:42:56.555Z,10.25
2019-06-01T09:45:25.866Z,7.22
2019-06-01T09:47:55.383Z,7.55
2019-06-01T09:50:24.716Z,7.20
2019-06-01T09:52:54.032Z,7.47
2019-06-01T09:55:23.326Z,9.88
2019-06-01T09:57:52.616Z,6.28
2019-06-01T10:00:22.079Z,7.33
2019-06-01T10:02:51.401Z,7.80
2019-06-01T10:05:20.763Z,7.03
2019-06-01T10:07:50.034Z,10.28
2019-06-01T10:10:19.477Z,8.20
2019-06-01T10:12:48.943Z,6.58
2019-06-01T10:15:18.254Z,8.05
2019-06-01T10:17:47.530Z,7.65
2019-06-01T10:20:17.280Z,7.17
2019-06-01T10:22:46.589Z,5.60
2019-06-01T10:25:16.145Z,6.72
2019-06-01T10:27:45.445Z,8.90
2019-06-01T10:30:16.379Z,8.48
2019-06-01T10:32:45.838Z,10.75
2019-06-01T10:35:15.447Z,7.80
2019-06-01T10:37:44.771Z,9.35
2019-06-01T10:40:14.377Z,10.05
2019-06-01T10:42:43.667Z,7.30
2019-06-01T10:45:13.265Z,7.85
2019-06-01T10:47:42.593Z,7.30
2019-06-01T10:50:13.052Z,7.20
2019-06-01T10:52:42.693Z,8.00
2019-06-01T10:55:12.314Z,5.25
2019-06-01T10:57:42.812Z,7.35
2019-06-01T11:00:12.939Z,5.33
2019-06-01T11:02:43.330Z,6.90
2019-06-01T11:05:13.053Z,5.87
2019-06-01T11:07:43.116Z,6.12
2019-06-01T11:10:13.129Z,7.83
2019-06-01T11:12:43.266Z,6.78
2019-06-01T11:15:12.829Z,6.62
2019-06-01T11:17:43.217Z,7.72
2019-06-01T11:22:43.744Z,7.37
2019-06-01T11:25:13.271Z,5.65
2019-06-01T11:27:44.038Z,6.50
2019-06-01T11:30:13.950Z,6.33
2019-06-01T11:32:44.940Z,7.35
2019-06-01T11:35:14.764Z,7.35
2019-06-01T11:37:44.555Z,4.90
2019-06-01T11:40:14.191Z,7.20
2019-06-01T11:42:44.950Z,4.30
2019-06-01T11:45:14.607Z,7.30
2019-06-01T11:47:44.845Z,5.72
2019-06-01T11:50:15.772Z,7.60
2019-06-01T11:52:45.508Z,7.35
2019-06-01T11:55:14.936Z,7.37
2019-06-01T11:57:44.303Z,6.97
2019-06-01T12:00:14.848Z,7.90
2019-06-01T12:02:44.188Z,9.80
2019-06-01T12:05:13.893Z,7.60
2019-06-01T12:07:43.905Z,8.78
2019-06-01T12:10:16.685Z,8.45
2019-06-01T12:12:46.507Z,9.88
2019-06-01T12:15:15.860Z,10.25
2019-06-01T12:17:45.302Z,8.95
2019-06-01T12:20:14.834Z,9.70
2019-06-01T12:22:45.144Z,10.50
2019-06-01T12:25:14.837Z,7.20
2019-06-01T12:27:44.139Z,8.70
2019-06-01T12:30:13.920Z,6.17
2019-06-01T12:32:44.069Z,11.22
2019-06-01T12:35:13.897Z,7.62
2019-06-01T12:38:02.061Z,9.45
2019-06-01T12:40:16.085Z,7.80
2019-06-01T12:42:45.908Z,6.15
2019-06-01T12:45:22.836Z,5.15
2019-06-01T12:47:55.224Z,9.28
2019-06-01T12:50:22.124Z,6.80
2019-06-01T12:52:52.767Z,8.15
2019-06-01T12:55:22.171Z,5.17
2019-06-01T12:57:52.556Z,8.75
2019-06-01T13:00:22.035Z,8.30
2019-06-01T13:03:03.654Z,5.30
2019-06-01T13:05:23.638Z,5.72
2019-06-01T13:08:01.830Z,5.03
2019-06-01T13:10:24.123Z,4.28
2019-06-01T13:12:53.594Z,7.95
2019-06-01T13:15:23.958Z,5.80
2019-06-01T13:17:53.247Z,5.90
2019-06-01T13:20:22.535Z,6.33
2019-06-01T13:22:51.976Z,6.72
2019-06-01T13:25:21.469Z,7.47
2019-06-01T13:27:50.763Z,9.93
2019-06-01T13:30:21.283Z,9.25
2019-06-01T13:32:50.820Z,7.75
2019-06-01T13:35:20.336Z,9.65
2019-06-01T13:37:50.811Z,9.55
2019-06-01T13:40:20.390Z,7.80
2019-06-01T13:42:49.694Z,10.03
2019-06-01T13:45:19.184Z,9.28
2019-06-01T13:47:49.765Z,10.80
2019-06-01T13:50:19.323Z,9.70
2019-06-01T13:52:49.937Z,9.40
2019-06-01T13:55:19.280Z,9.88
2019-06-01T13:57:48.569Z,9.78
2019-06-01T14:00:29.872Z,9.38
2019-06-01T14:02:53.683Z,8.13
2019-06-01T14:05:20.069Z,11.08
2019-06-01T14:07:49.597Z,9.30
2019-06-01T14:10:20.087Z,11.50
2019-06-01T14:12:49.492Z,12.63
2019-06-01T14:15:18.851Z,11.65
2019-06-01T14:17:48.149Z,8.60
2019-06-01T14:20:17.776Z,9.48
2019-06-01T14:22:47.657Z,9.15
2019-06-01T14:25:17.697Z,10.65
2019-06-01T14:27:48.137Z,8.68
2019-06-01T14:30:17.691Z,7.80
2019-06-01T14:32:48.755Z,8.33
2019-06-01T14:35:18.169Z,7.58
2019-06-01T14:37:48.756Z,9.35
2019-06-01T14:40:18.865Z,8.53
2019-06-01T14:42:49.040Z,9.80
2019-06-01T14:45:20.138Z,9.35
2019-06-01T14:47:49.500Z,9.83
2019-06-01T14:50:18.808Z,8.70
2019-06-01T14:52:49.513Z,8.20
2019-06-01T14:55:18.959Z,9.83
2019-06-01T14:57:48.601Z,9.68
2019-06-01T15:00:19.406Z,9.60
2019-06-01T15:02:49.941Z,10.08
2019-06-01T15:05:19.401Z,12.30
2019-06-01T15:07:49.032Z,10.60
2019-06-01T15:10:19.670Z,13.38
2019-06-01T15:12:54.566Z,11.22
2019-06-01T15:15:20.531Z,11.68
2019-06-01T15:17:49.834Z,9.53
2019-06-01T15:20:19.246Z,10.58
2019-06-01T15:22:49.922Z,10.65
2019-06-01T15:25:19.352Z,12.03
2019-06-01T15:27:48.860Z,10.05
2019-06-01T15:30:18.624Z,13.00
2019-06-01T15:32:47.896Z,12.85
2019-06-01T15:35:17.260Z,13.60
2019-06-01T15:37:46.559Z,12.50
2019-06-01T15:40:16.239Z,11.53
2019-06-01T15:42:45.790Z,13.55
2019-06-01T15:45:15.441Z,12.43
2019-06-01T15:47:44.773Z,15.63
2019-06-01T15:50:15.941Z,13.88
2019-06-01T15:52:45.242Z,13.95
2019-06-01T15:55:14.731Z,15.90
2019-06-01T15:57:44.083Z,11.48
2019-06-01T16:00:13.765Z,12.07
2019-06-01T16:02:43.115Z,12.47
2019-06-01T16:05:12.866Z,17.87
2019-06-01T16:07:42.210Z,14.05
2019-06-01T16:10:11.745Z,11.28
2019-06-01T16:12:41.189Z,14.05
2019-06-01T16:15:10.937Z,12.98
2019-06-01T16:17:40.398Z,13.05
2019-06-01T16:20:11.880Z,10.38
2019-06-01T16:22:41.236Z,11.33
2019-06-01T16:25:10.881Z,15.58
2019-06-01T16:27:40.173Z,14.75
2019-06-01T16:30:11.198Z,11.80
2019-06-01T16:32:40.488Z,13.60
2019-06-01T16:35:09.789Z,12.07
2019-06-01T16:37:39.074Z,12.88
2019-06-01T16:40:10.624Z,12.05
2019-06-01T16:42:40.386Z,11.75
2019-06-01T16:45:10.219Z,14.87
2019-06-01T16:47:39.572Z,14.30
2019-06-01T16:50:09.683Z,14.03
2019-06-01T16:52:39.060Z,12.35
2019-06-01T16:55:09.419Z,11.90
2019-06-01T16:57:38.783Z,13.35
2019-06-01T17:00:10.021Z,11.78
2019-06-01T17:02:39.568Z,14.73
2019-06-01T17:05:09.350Z,14.35
2019-06-01T17:07:38.777Z,11.80
2019-06-01T17:10:25.016Z,11.93
2019-06-01T17:12:43.182Z,14.05
2019-06-01T17:15:11.319Z,13.43
2019-06-01T17:17:40.758Z,11.60
2019-06-01T17:20:38.248Z,12.20
2019-06-01T17:23:24.161Z,12.18
2019-06-01T17:25:38.757Z,13.43
2019-06-01T17:28:09.247Z,13.10
2019-06-01T17:30:38.665Z,12.23
2019-06-01T17:33:08.598Z,13.88
2019-06-01T17:35:38.042Z,15.03
2019-06-01T17:38:07.595Z,11.48
2019-06-01T17:40:41.669Z,12.28
2019-06-01T17:43:08.910Z,11.80
2019-06-01T17:45:38.519Z,14.65
2019-06-01T17:48:24.307Z,14.18
2019-06-01T17:50:39.030Z,13.83
2019-06-01T17:53:08.908Z,13.98
2019-06-01T17:55:40.036Z,15.13
2019-06-01T17:58:12.198Z,11.60
2019-06-01T18:00:41.753Z,13.78
2019-06-01T18:03:12.087Z,11.55
2019-06-01T18:05:43.046Z,12.43
2019-06-01T18:08:12.962Z,14.58
2019-06-01T18:10:53.390Z,11.73
2019-06-01T18:13:13.706Z,11.53
2019-06-01T18:15:43.010Z,10.08
2019-06-01T18:18:12.964Z,12.07
2019-06-01T18:20:43.657Z,12.33
2019-06-01T18:23:13.508Z,10.45
2019-06-01T18:25:44.544Z,11.03
2019-06-01T18:28:19.020Z,8.38
2019-06-01T18:30:45.020Z,9.90
2019-06-01T18:33:14.486Z,9.10
2019-06-01T18:35:43.815Z,10.28
2019-06-01T18:38:14.723Z,11.93
2019-06-01T18:40:44.288Z,8.58
2019-06-01T18:43:17.117Z,11.70
2019-06-01T18:45:47.486Z,8.30
2019-06-01T18:48:17.213Z,9.05
2019-06-01T18:50:46.994Z,8.55
2019-06-01T18:53:16.397Z,13.50
2019-06-01T18:55:45.671Z,11.25
2019-06-01T18:58:15.048Z,11.80
2019-06-01T19:00:45.715Z,14.47
2019-06-01T19:03:15.530Z,10.60
2019-06-01T19:05:46.121Z,10.88
2019-06-01T19:08:16.175Z,10.95
2019-06-01T19:10:47.960Z,11.15
2019-06-01T19:13:18.124Z,10.50
2019-06-01T19:15:47.419Z,11.43
2019-06-01T19:18:17.561Z,12.73
2019-06-01T19:20:46.962Z,11.73
2019-06-01T19:23:21.384Z,12.78
2019-06-01T19:25:48.588Z,10.93
2019-06-01T19:28:18.047Z,10.32
2019-06-01T19:30:47.456Z,12.07
2019-06-01T19:33:19.487Z,11.38
2019-06-01T19:35:49.456Z,11.90
2019-06-01T19:38:20.129Z,14.85
2019-06-01T19:40:51.171Z,12.82
2019-06-01T19:43:20.943Z,13.62
2019-06-01T19:45:51.105Z,14.38
2019-06-01T19:48:20.594Z,13.78
2019-06-01T19:50:51.765Z,15.15
2019-06-01T19:53:21.141Z,12.53
2019-06-01T19:55:51.594Z,14.95
2019-06-01T19:58:22.258Z,12.40
2019-06-01T20:00:52.931Z,15.15
2019-06-01T20:03:23.872Z,14.07
2019-06-01T20:05:53.286Z,15.00
2019-06-01T20:08:22.753Z,13.83
2019-06-01T20:10:52.041Z,15.80
2019-06-01T20:13:21.526Z,16.80
2019-06-01T20:15:50.841Z,20.10
2019-06-01T20:18:20.142Z,15.58
2019-06-01T20:20:50.019Z,17.10
2019-06-01T20:23:19.631Z,18.30
2019-06-01T20:25:49.080Z,19.12
2019-06-01T20:28:19.547Z,15.85
2019-06-01T20:30:49.431Z,16.55
2019-06-01T20:33:20.307Z,18.57
2019-06-01T20:35:49.792Z,16.75
2019-06-01T20:38:20.542Z,20.77
2019-06-01T20:40:50.207Z,17.32
2019-06-01T20:43:20.817Z,17.77
2019-06-01T20:45:50.479Z,19.02
2019-06-01T20:48:21.051Z,19.67
2019-06-01T20:50:52.074Z,17.73
2019-06-01T20:53:21.463Z,18.90
2019-06-01T20:55:50.770Z,18.50
2019-06-01T20:58:22.898Z,19.65
2019-06-01T21:00:51.149Z,17.07
2019-06-01T21:03:21.813Z,17.90
2019-06-01T21:05:51.234Z,19.20
2019-06-01T21:08:22.260Z,17.90
2019-06-01T21:10:52.032Z,20.27
2019-06-01T21:13:22.283Z,16.65
2019-06-01T21:15:51.719Z,19.60
2019-06-01T21:18:22.331Z,20.35
2019-06-01T21:20:52.105Z,19.55
2019-06-01T21:23:21.418Z,22.48
2019-06-01T21:25:52.871Z,18.73
2019-06-01T21:28:23.649Z,21.87
2019-06-01T21:30:53.172Z,19.27
2019-06-01T21:33:26.642Z,18.10
2019-06-01T21:35:53.529Z,22.62
2019-06-01T21:38:23.665Z,23.02
2019-06-01T21:40:53.020Z,22.98
2019-06-01T21:43:29.744Z,21.93
2019-06-01T21:45:53.419Z,22.58
2019-06-01T21:48:23.975Z,24.82
2019-06-01T21:50:53.655Z,24.72
2019-06-01T21:53:22.930Z,26.35
2019-06-01T21:55:53.921Z,26.85
2019-06-01T21:58:24.453Z,21.15
2019-06-01T22:00:54.977Z,22.20
2019-06-01T22:03:25.637Z,25.52
2019-06-01T22:05:55.268Z,27.30
2019-06-01T22:08:25.793Z,28.35
2019-06-01T22:10:55.295Z,28.10
2019-06-01T22:13:27.108Z,28.60
2019-06-01T22:15:55.620Z,28.32
2019-06-01T22:18:25.837Z,27.07
2019-06-01T22:20:56.374Z,26.05
2019-06-01T22:23:26.101Z,26.42
2019-06-01T22:25:55.569Z,26.82
2019-06-01T22:28:24.856Z,31.95
2019-06-01T22:30:54.258Z,27.95
2019-06-01T22:33:24.563Z,31.35
2019-06-01T22:35:53.916Z,28.23
2019-06-01T22:38:23.730Z,29.77
2019-06-01T22:40:53.180Z,29.67
2019-06-01T22:43:39.283Z,32.15
2019-06-01T22:45:53.679Z,30.77
2019-06-01T22:48:22.991Z,29.12
2019-06-01T22:50:52.274Z,30.15
2019-06-01T22:53:22.372Z,29.02
2019-06-01T22:55:51.694Z,33.92
2019-06-01T22:58:21.316Z,30.80
2019-06-01T23:00:50.691Z,30.30
2019-06-01T23:03:20.109Z,29.55
2019-06-01T23:05:49.495Z,32.88
2019-06-01T23:08:18.961Z,28.32
2019-06-01T23:10:48.269Z,28.75
2019-06-01T23:13:17.552Z,31.97
2019-06-01T23:15:46.856Z,36.23
2019-06-01T23:18:16.277Z,33.10
2019-06-01T23:20:45.753Z,34.73
2019-06-01T23:23:15.036Z,34.58
2019-06-01T23:25:44.338Z,34.25
2019-06-01T23:28:13.637Z,33.80
2019-06-01T23:30:42.967Z,33.25
2019-06-01T23:33:12.254Z,33.53
2019-06-01T23:35:41.579Z,34.67
2019-06-01T23:38:10.904Z,32.40
2019-06-01T23:40:40.182Z,33.65
2019-06-01T23:43:09.525Z,35.00
2019-06-01T23:45:38.826Z,29.82
2019-06-01T23:48:08.183Z,32.45
2019-06-01T23:50:37.664Z,33.48
2019-06-01T23:53:13.729Z,34.30
2019-06-01T23:55:38.038Z,35.75
2019-06-01T23:58:07.358Z,35.63
